createdAt,value
2023-04-25T00:01:37.164Z,99636.50
2023-04-25T00:03:40.484Z,99621.13
2023-04-25T00:05:43.456Z,99639.25
2023-04-25T00:07:47.131Z,99625.78
2023-04-25T00:09:49.965Z,99629.53
2023-04-25T00:11:52.507Z,99633.44
2023-04-25T00:13:55.463Z,99631.00
2023-04-25T00:15:59.201Z,99640.75
2023-04-25T00:18:01.935Z,99635.59
2023-04-25T00:20:10.731Z,99634.75
2023-04-25T00:22:14.453Z,99642.53
2023-04-25T00:24:17.032Z,99638.50
2023-04-25T00:26:19.833Z,99636.09
2023-04-25T00:28:22.376Z,99635.28
2023-04-25T00:30:25.013Z,99639.16
2023-04-25T00:32:27.987Z,99633.97
2023-04-25T00:34:30.561Z,99642.56
2023-04-25T00:36:33.176Z,99644.19
2023-04-25T00:38:35.872Z,99635.13
2023-04-25T00:40:38.466Z,99642.22
2023-04-25T00:42:42.921Z,99641.09
2023-04-25T00:44:46.376Z,99650.16
2023-04-25T00:46:50.607Z,99634.78
2023-04-25T00:48:53.355Z,99635.13
2023-04-25T00:50:58.920Z,99635.13
2023-04-25T00:53:02.011Z,99640.13
2023-04-25T00:55:05.380Z,99648.41
2023-04-25T00:57:08.076Z,99645.97
2023-04-25T00:59:11.153Z,99638.06
2023-04-25T01:01:14.559Z,99643.88
2023-04-25T01:03:18.636Z,99645.81
2023-04-25T01:05:21.348Z,99641.91
2023-04-25T01:07:23.986Z,99637.03
2023-04-25T01:09:27.255Z,99648.91
2023-04-25T01:11:29.810Z,99639.00
2023-04-25T01:13:33.358Z,99633.81
2023-04-25T01:15:37.203Z,99637.72
2023-04-25T01:17:42.554Z,99638.81
2023-04-25T01:19:47.159Z,99631.41
2023-04-25T01:21:49.968Z,99631.72
2023-04-25T01:23:52.993Z,99629.28
2023-04-25T01:25:56.402Z,99630.09
2023-04-25T01:27:59.832Z,99624.59
2023-04-25T01:30:02.515Z,99630.09
2023-04-25T01:32:09.492Z,99631.22
2023-04-25T01:34:13.452Z,99632.84
2023-04-25T01:36:16.580Z,99629.09
2023-04-25T01:38:19.118Z,99632.69
2023-04-25T01:40:23.585Z,99635.13
2023-04-25T01:42:26.271Z,99629.63
2023-04-25T01:44:29.268Z,99624.13
2023-04-25T01:46:32.367Z,99622.19
2023-04-25T01:48:35.114Z,99629.63
2023-04-25T01:50:39.559Z,99634.81
2023-04-25T01:52:42.156Z,99626.22
2023-04-25T01:54:45.847Z,99627.84
2023-04-25T01:56:52.318Z,99630.59
2023-04-25T01:58:55.207Z,99630.28
2023-04-25T02:00:57.999Z,99629.59
2023-04-25T02:03:00.712Z,99632.84
2023-04-25T02:05:03.709Z,99625.88
2023-04-25T02:07:06.875Z,99633.81
2023-04-25T02:09:09.490Z,99626.34
2023-04-25T02:11:12.507Z,99622.94
2023-04-25T02:13:15.128Z,99626.50
2023-04-25T02:15:17.881Z,99621.94
2023-04-25T02:17:22.421Z,99634.41
2023-04-25T02:19:25.035Z,99636.50
2023-04-25T02:21:27.714Z,99636.66
2023-04-25T02:23:30.380Z,99639.72
2023-04-25T02:25:32.991Z,99640.31
2023-04-25T02:27:35.801Z,99633.03
2023-04-25T02:29:39.363Z,99640.78
2023-04-25T02:31:42.004Z,99638.94
2023-04-25T02:33:45.020Z,99640.72
2023-04-25T02:35:47.749Z,99639.72
2023-04-25T02:37:50.356Z,99641.00
2023-04-25T02:39:52.980Z,99639.19
2023-04-25T02:41:55.734Z,99641.28
2023-04-25T02:43:58.302Z,99642.25
2023-04-25T02:46:01.010Z,99639.28
2023-04-25T02:48:04.624Z,99641.25
2023-04-25T02:50:07.818Z,99652.22
2023-04-25T02:52:10.493Z,99648.00
2023-04-25T02:54:13.113Z,99656.38
2023-04-25T02:56:15.718Z,99651.84
2023-04-25T02:58:18.761Z,99651.63
2023-04-25T03:00:21.362Z,99650.63
2023-04-25T03:02:23.947Z,99657.56
2023-04-25T03:04:26.723Z,99661.28
2023-04-25T03:06:29.386Z,99656.22
2023-04-25T03:08:33.696Z,99661.19
2023-04-25T03:10:36.433Z,99668.03
2023-04-25T03:12:39.149Z,99671.72
2023-04-25T03:14:41.776Z,99669.94
2023-04-25T03:16:44.464Z,99670.41
2023-04-25T03:18:47.009Z,99669.72
2023-04-25T03:20:49.550Z,99667.91
2023-04-25T03:22:52.188Z,99676.78
2023-04-25T03:24:54.809Z,99664.72
2023-04-25T03:26:57.513Z,99670.50
2023-04-25T03:29:00.046Z,99677.31
2023-04-25T03:31:02.620Z,99674.91
2023-04-25T03:33:05.184Z,99673.53
2023-04-25T03:35:08.358Z,99672.97
2023-04-25T03:37:11.060Z,99680.41
2023-04-25T03:39:13.940Z,99672.22
2023-04-25T03:41:16.825Z,99672.81
2023-04-25T03:43:19.566Z,99680.53
2023-04-25T03:45:22.299Z,99670.09
2023-04-25T03:47:24.926Z,99667.59
2023-04-25T03:49:27.584Z,99674.47
2023-04-25T03:51:30.327Z,99674.72
2023-04-25T03:53:32.863Z,99669.44
2023-04-25T03:55:35.877Z,99668.88
2023-04-25T03:57:38.420Z,99667.97
2023-04-25T03:59:41.036Z,99672.75
2023-04-25T04:01:43.841Z,99677.34
2023-04-25T04:03:46.832Z,99684.72
2023-04-25T04:05:49.930Z,99683.31
2023-04-25T04:07:52.508Z,99677.69
2023-04-25T04:09:55.113Z,99673.63
2023-04-25T04:11:57.886Z,99667.84
2023-04-25T04:14:01.124Z,99669.00
2023-04-25T04:16:05.430Z,99684.78
2023-04-25T04:18:08.181Z,99678.31
2023-04-25T04:20:11.168Z,99684.84
2023-04-25T04:22:13.748Z,99674.00
2023-04-25T04:24:17.915Z,99665.44
2023-04-25T04:26:20.548Z,99676.03
2023-04-25T04:28:23.138Z,99679.03
2023-04-25T04:30:26.561Z,99678.41
2023-04-25T04:32:29.121Z,99669.94
2023-04-25T04:34:32.208Z,99676.94
2023-04-25T04:36:34.870Z,99674.00
2023-04-25T04:38:38.351Z,99677.75
2023-04-25T04:40:44.217Z,99673.66
2023-04-25T04:42:46.804Z,99665.97
2023-04-25T04:44:49.359Z,99667.41
2023-04-25T04:46:53.032Z,99662.84
2023-04-25T04:48:57.496Z,99671.72
2023-04-25T04:51:00.219Z,99668.31
2023-04-25T04:53:03.396Z,99669.66
2023-04-25T04:55:06.949Z,99670.66
2023-04-25T04:57:09.527Z,99665.91
2023-04-25T04:59:12.114Z,99671.63
2023-04-25T05:01:17.115Z,99672.50
2023-04-25T05:03:19.902Z,99675.00
2023-04-25T05:05:22.766Z,99671.06
2023-04-25T05:07:26.046Z,99675.91
2023-04-25T05:09:28.642Z,99662.47
2023-04-25T05:11:31.322Z,99659.03
2023-04-25T05:13:34.476Z,99647.28
2023-04-25T05:15:37.326Z,99655.78
2023-04-25T05:17:40.301Z,99656.38
2023-04-25T05:19:43.062Z,99656.16
2023-04-25T05:21:45.628Z,99657.84
2023-04-25T05:23:48.172Z,99660.69
2023-04-25T05:25:50.666Z,99654.47
2023-04-25T05:27:53.570Z,99647.38
2023-04-25T05:29:56.122Z,99654.06
2023-04-25T05:31:58.776Z,99649.16
2023-04-25T05:34:01.415Z,99644.97
2023-04-25T05:36:04.124Z,99649.81
2023-04-25T05:38:06.747Z,99645.97
2023-04-25T05:40:09.995Z,99644.13
2023-04-25T05:42:12.563Z,99651.00
2023-04-25T05:44:17.065Z,99643.97
2023-04-25T05:46:19.719Z,99647.28
2023-04-25T05:48:22.340Z,99652.25
2023-04-25T05:50:25.053Z,99648.03
2023-04-25T05:52:27.604Z,99643.81
2023-04-25T05:54:30.073Z,99640.25
2023-04-25T05:56:32.676Z,99639.97
2023-04-25T05:58:35.765Z,99633.72
2023-04-25T06:00:39.698Z,99644.13
2023-04-25T06:02:42.724Z,99642.59
2023-04-25T06:04:45.523Z,99643.94
2023-04-25T06:06:48.231Z,99647.66
2023-04-25T06:08:51.589Z,99646.53
2023-04-25T06:10:54.409Z,99637.50
2023-04-25T06:12:56.906Z,99644.38
2023-04-25T06:14:59.398Z,99647.59
2023-04-25T06:17:07.468Z,99644.47
2023-04-25T06:19:10.019Z,99646.84
2023-04-25T06:21:12.679Z,99648.72
2023-04-25T06:23:15.220Z,99638.28
2023-04-25T06:25:17.945Z,99636.38
2023-04-25T06:27:20.495Z,99638.44
2023-04-25T06:29:23.077Z,99625.28
2023-04-25T06:31:26.413Z,99637.59
2023-04-25T06:33:29.800Z,99627.66
2023-04-25T06:35:32.406Z,99628.16
2023-04-25T06:37:34.982Z,99626.59
2023-04-25T06:39:39.836Z,99637.00
2023-04-25T06:41:43.649Z,99633.44
2023-04-25T06:43:46.120Z,99633.84
2023-04-25T06:45:48.828Z,99627.94
2023-04-25T06:47:51.701Z,99637.16
2023-04-25T06:49:54.299Z,99634.78
2023-04-25T06:51:57.161Z,99634.88
2023-04-25T06:54:00.639Z,99636.91
2023-04-25T06:56:04.150Z,99636.63
2023-04-25T06:58:06.742Z,99632.28
2023-04-25T07:00:10.728Z,99638.31
2023-04-25T07:02:13.670Z,99636.84
2023-04-25T07:04:16.524Z,99642.44
2023-04-25T07:06:19.535Z,99644.88
2023-04-25T07:08:22.514Z,99654.09
2023-04-25T07:10:25.166Z,99652.94
2023-04-25T07:12:27.733Z,99652.50
2023-04-25T07:14:30.263Z,99645.00
2023-04-25T07:16:33.018Z,99644.63
2023-04-25T07:18:35.541Z,99645.84
2023-04-25T07:20:38.075Z,99654.66
2023-04-25T07:22:40.642Z,99646.69
2023-04-25T07:24:43.231Z,99649.94
2023-04-25T07:26:46.053Z,99632.38
2023-04-25T07:28:52.060Z,99644.41
2023-04-25T07:30:54.845Z,99636.09
2023-04-25T07:32:57.418Z,99652.44
2023-04-25T07:34:59.977Z,99653.31
2023-04-25T07:37:02.614Z,99651.81
2023-04-25T07:39:05.199Z,99651.44
2023-04-25T07:41:07.921Z,99648.28
2023-04-25T07:43:13.389Z,99654.31
2023-04-25T07:45:16.562Z,99650.34
2023-04-25T07:47:20.427Z,99655.88
2023-04-25T07:49:23.216Z,99654.31
2023-04-25T07:51:25.782Z,99655.97
2023-04-25T07:53:28.402Z,99647.97
2023-04-25T07:55:31.080Z,99648.38
2023-04-25T07:57:33.685Z,99655.19
2023-04-25T07:59:36.274Z,99664.44
2023-04-25T08:01:38.961Z,99652.91
2023-04-25T08:03:41.755Z,99649.78
2023-04-25T08:05:44.928Z,99639.84
2023-04-25T08:07:47.704Z,99657.41
2023-04-25T08:09:50.364Z,99661.78
2023-04-25T08:11:53.027Z,99655.38
2023-04-25T08:13:55.589Z,99653.69
2023-04-25T08:15:58.337Z,99647.66
2023-04-25T08:18:00.989Z,99649.28
2023-04-25T08:20:06.937Z,99651.66
2023-04-25T08:22:10.178Z,99656.44
2023-04-25T08:24:12.867Z,99661.56
2023-04-25T08:26:16.113Z,99665.09
2023-04-25T08:28:18.666Z,99651.84
2023-04-25T08:30:22.099Z,99658.56
2023-04-25T08:32:24.872Z,99663.34
2023-04-25T08:34:27.442Z,99658.94
2023-04-25T08:38:35.588Z,99665.59
2023-04-25T08:40:40.862Z,99650.84
2023-04-25T08:42:44.017Z,99661.34
2023-04-25T08:44:47.408Z,99660.94
2023-04-25T08:46:51.233Z,99654.06
2023-04-25T08:48:57.879Z,99651.22
2023-04-25T08:51:03.761Z,99652.41
2023-04-25T08:53:11.493Z,99651.19
2023-04-25T08:55:15.315Z,99657.25
2023-04-25T08:57:18.964Z,99652.44
2023-04-25T08:59:23.749Z,99652.47
2023-04-25T09:01:26.976Z,99657.28
2023-04-25T09:03:29.804Z,99661.22
2023-04-25T09:05:36.692Z,99656.28
2023-04-25T09:07:39.272Z,99644.25
2023-04-25T09:09:41.824Z,99649.06
2023-04-25T09:11:44.539Z,99651.00
2023-04-25T09:13:47.208Z,99647.00
2023-04-25T09:15:57.985Z,99653.38
2023-04-25T09:18:01.255Z,99651.78
2023-04-25T09:20:09.202Z,99646.13
2023-04-25T09:22:11.900Z,99644.94
2023-04-25T09:24:14.555Z,99651.28
2023-04-25T09:26:19.499Z,99650.03
2023-04-25T09:28:28.613Z,99648.44
2023-04-25T09:30:35.219Z,99637.69
2023-04-25T09:32:38.285Z,99646.50
2023-04-25T09:34:45.107Z,99649.22
2023-04-25T09:36:47.770Z,99656.03
2023-04-25T09:38:50.342Z,99654.06
2023-04-25T09:40:53.332Z,99654.09
2023-04-25T09:42:56.374Z,99650.03
2023-04-25T09:45:00.174Z,99642.06
2023-04-25T09:47:04.095Z,99644.06
2023-04-25T09:49:09.650Z,99649.22
2023-04-25T09:51:15.015Z,99648.50
2023-04-25T09:53:17.558Z,99641.72
2023-04-25T09:55:21.515Z,99648.22
2023-04-25T09:57:25.730Z,99645.56
2023-04-25T09:59:32.727Z,99649.25
2023-04-25T10:01:37.808Z,99645.22
2023-04-25T10:03:48.002Z,99640.44
2023-04-25T10:05:55.242Z,99646.88
2023-04-25T10:07:58.799Z,99650.91
2023-04-25T10:10:06.016Z,99643.06
2023-04-25T10:12:10.134Z,99639.13
2023-04-25T10:14:14.236Z,99648.75
2023-04-25T10:16:17.633Z,99636.47
2023-04-25T10:18:21.075Z,99643.25
2023-04-25T10:20:24.418Z,99647.66
2023-04-25T10:22:37.426Z,99640.84
2023-04-25T10:24:40.627Z,99636.06
2023-04-25T10:26:44.442Z,99641.22
2023-04-25T10:28:58.035Z,99635.13
2023-04-25T10:31:06.816Z,99651.09
2023-04-25T10:33:20.070Z,99640.66
2023-04-25T10:35:33.162Z,99632.56
2023-04-25T10:37:39.485Z,99628.94
2023-04-25T10:39:45.070Z,99635.03
2023-04-25T10:41:54.184Z,99629.06
2023-04-25T10:44:04.742Z,99614.56
2023-04-25T10:46:21.311Z,99637.81
2023-04-25T10:48:28.758Z,99629.34
2023-04-25T10:50:40.711Z,99618.13
2023-04-25T10:52:45.515Z,99640.16
2023-04-25T10:54:55.519Z,99629.72
2023-04-25T10:56:59.878Z,99640.81
2023-04-25T10:59:19.449Z,99632.44
2023-04-25T11:01:25.886Z,99640.50
2023-04-25T11:03:28.756Z,99639.72
2023-04-25T11:05:51.066Z,99640.47
2023-04-25T11:08:07.566Z,99634.06
2023-04-25T11:10:11.028Z,99636.47
2023-04-25T11:12:14.320Z,99636.03
2023-04-25T11:14:16.951Z,99639.66
2023-04-25T11:16:27.460Z,99651.63
2023-04-25T11:18:31.422Z,99643.13
2023-04-25T11:20:34.129Z,99634.19
2023-04-25T11:22:36.882Z,99643.94
2023-04-25T11:24:39.581Z,99639.94
2023-04-25T11:26:48.787Z,99637.44
2023-04-25T11:28:51.427Z,99646.28
2023-04-25T11:30:54.162Z,99637.41
2023-04-25T11:32:56.890Z,99641.22
2023-04-25T11:34:59.464Z,99637.25
2023-04-25T11:37:03.281Z,99638.38
2023-04-25T11:39:07.133Z,99630.09
2023-04-25T11:41:09.715Z,99632.91
2023-04-25T11:43:12.368Z,99634.53
2023-04-25T11:45:16.924Z,99631.06
2023-04-25T11:47:19.952Z,99629.16
2023-04-25T11:49:23.275Z,99620.94
2023-04-25T11:51:26.588Z,99623.03
2023-04-25T11:53:29.484Z,99624.28
2023-04-25T11:55:32.401Z,99618.69
2023-04-25T11:57:35.084Z,99619.78
2023-04-25T11:59:37.661Z,99623.41
2023-04-25T12:01:42.047Z,99613.88
2023-04-25T12:03:47.797Z,99613.59
2023-04-25T12:05:51.826Z,99617.63
2023-04-25T12:07:54.603Z,99605.75
2023-04-25T12:09:57.268Z,99612.03
2023-04-25T12:12:03.833Z,99600.91
2023-04-25T12:14:06.903Z,99604.03
2023-04-25T12:16:09.729Z,99607.25
2023-04-25T12:18:12.735Z,99596.16
2023-04-25T12:20:17.829Z,99597.38
2023-04-25T12:22:25.964Z,99600.88
2023-04-25T12:24:29.093Z,99589.69
2023-04-25T12:26:47.639Z,99591.78
2023-04-25T12:28:50.645Z,99581.91
2023-04-25T12:31:06.343Z,99584.66
2023-04-25T12:33:09.676Z,99584.19
2023-04-25T12:35:12.251Z,99587.00
2023-04-25T12:37:15.247Z,99579.16
2023-04-25T12:39:18.315Z,99580.09
2023-04-25T12:41:20.937Z,99578.09
2023-04-25T12:43:23.878Z,99572.41
2023-04-25T12:45:26.974Z,99573.50
2023-04-25T12:47:29.646Z,99564.16
2023-04-25T12:49:33.116Z,99567.97
2023-04-25T12:51:37.399Z,99563.50
2023-04-25T12:53:41.814Z,99569.81
2023-04-25T12:55:47.063Z,99555.06
2023-04-25T12:57:49.972Z,99558.34
2023-04-25T12:59:52.564Z,99551.13
2023-04-25T13:01:55.370Z,99562.44
2023-04-25T13:03:58.087Z,99544.94
2023-04-25T13:06:00.867Z,99555.28
2023-04-25T13:08:03.787Z,99549.53
2023-04-25T13:10:08.097Z,99553.34
2023-04-25T13:12:11.282Z,99542.53
2023-04-25T13:14:14.254Z,99538.59
2023-04-25T13:16:17.162Z,99539.63
2023-04-25T13:18:20.541Z,99552.28
2023-04-25T13:20:23.698Z,99543.91
2023-04-25T13:22:26.656Z,99548.22
2023-04-25T13:24:29.246Z,99540.53
2023-04-25T13:26:32.168Z,99539.66
2023-04-25T13:28:35.034Z,99527.22
2023-04-25T13:30:38.235Z,99531.91
2023-04-25T13:32:42.257Z,99528.16
2023-04-25T13:34:47.322Z,99527.50
2023-04-25T13:36:50.334Z,99522.28
2023-04-25T13:38:53.208Z,99525.38
2023-04-25T13:40:56.275Z,99525.38
2023-04-25T13:43:00.469Z,99514.59
2023-04-25T13:45:03.973Z,99524.84
2023-04-25T13:47:11.278Z,99516.53
2023-04-25T13:49:14.341Z,99513.03
2023-04-25T13:51:18.699Z,99515.31
2023-04-25T13:53:22.237Z,99518.09
2023-04-25T13:55:24.928Z,99510.47
2023-04-25T13:57:27.486Z,99514.66
2023-04-25T13:59:30.080Z,99510.19
2023-04-25T14:01:35.505Z,99511.53
2023-04-25T14:03:38.398Z,99506.25
2023-04-25T14:05:42.158Z,99513.94
2023-04-25T14:07:46.262Z,99509.72
2023-04-25T14:09:49.091Z,99508.56
2023-04-25T14:11:51.609Z,99513.19
2023-04-25T14:13:54.273Z,99510.50
2023-04-25T14:15:57.023Z,99506.28
2023-04-25T14:18:00.825Z,99504.44
2023-04-25T14:20:03.523Z,99502.56
2023-04-25T14:22:07.759Z,99506.44
2023-04-25T14:24:12.051Z,99503.28
2023-04-25T14:26:14.667Z,99490.94
2023-04-25T14:28:17.182Z,99494.38
2023-04-25T14:30:21.515Z,99483.84
2023-04-25T14:32:24.375Z,99480.75
2023-04-25T14:34:27.040Z,99482.41
2023-04-25T14:36:30.060Z,99491.13
2023-04-25T14:38:32.562Z,99489.81
2023-04-25T14:40:35.100Z,99485.34
2023-04-25T14:42:38.120Z,99471.38
2023-04-25T14:44:40.823Z,99479.97
2023-04-25T14:46:43.600Z,99469.06
2023-04-25T14:48:46.828Z,99470.16
2023-04-25T14:50:49.581Z,99470.88
2023-04-25T14:52:53.846Z,99464.91
2023-04-25T14:54:56.643Z,99461.22
2023-04-25T14:56:59.337Z,99459.19
2023-04-25T14:59:01.846Z,99449.91
2023-04-25T15:01:04.728Z,99462.41
2023-04-25T15:03:08.797Z,99467.09
2023-04-25T15:05:11.687Z,99461.75
2023-04-25T15:07:15.769Z,99460.88
2023-04-25T15:09:20.492Z,99456.81
2023-04-25T15:11:23.200Z,99457.19
2023-04-25T15:13:26.735Z,99458.16
2023-04-25T15:15:29.309Z,99448.88
2023-04-25T15:17:32.304Z,99451.78
2023-04-25T15:19:34.946Z,99450.28
2023-04-25T15:21:37.581Z,99449.81
2023-04-25T15:23:40.257Z,99446.59
2023-04-25T15:25:43.234Z,99446.84
2023-04-25T15:27:47.694Z,99443.97
2023-04-25T15:29:50.265Z,99439.63
2023-04-25T15:31:53.021Z,99440.56
2023-04-25T15:33:55.688Z,99437.72
2023-04-25T15:35:59.031Z,99445.22
2023-04-25T15:38:01.704Z,99442.34
2023-04-25T15:40:10.847Z,99446.59
2023-04-25T15:42:13.882Z,99442.59
2023-04-25T15:44:16.590Z,99448.38
2023-04-25T15:46:19.252Z,99440.41
2023-04-25T15:48:21.974Z,99443.09
2023-04-25T15:50:25.217Z,99437.91
2023-04-25T15:52:27.925Z,99430.66
2023-04-25T15:54:32.740Z,99429.41
2023-04-25T15:56:35.383Z,99433.06
2023-04-25T15:58:38.234Z,99431.81
2023-04-25T16:00:40.921Z,99431.03
2023-04-25T16:02:45.757Z,99431.72
2023-04-25T16:04:48.950Z,99422.84
2023-04-25T16:06:52.451Z,99424.81
2023-04-25T16:08:55.388Z,99424.81
2023-04-25T16:10:58.084Z,99421.72
2023-04-25T16:13:00.661Z,99424.03
2023-04-25T16:15:04.112Z,99423.91
2023-04-25T16:17:08.263Z,99421.06
2023-04-25T16:19:11.276Z,99415.16
2023-04-25T16:21:17.356Z,99413.69
2023-04-25T16:23:20.119Z,99414.81
2023-04-25T16:25:22.714Z,99423.09
2023-04-25T16:27:25.836Z,99419.09
2023-04-25T16:29:28.431Z,99421.31
2023-04-25T16:31:31.167Z,99411.28
2023-04-25T16:33:34.713Z,99415.44
2023-04-25T16:35:37.286Z,99417.75
2023-04-25T16:37:39.959Z,99411.41
2023-04-25T16:39:42.524Z,99410.63
2023-04-25T16:41:45.225Z,99400.25
2023-04-25T16:43:47.799Z,99401.88
2023-04-25T16:45:50.471Z,99402.56
2023-04-25T16:47:53.385Z,99386.44
2023-04-25T16:49:56.215Z,99397.47
2023-04-25T16:51:58.843Z,99394.72
2023-04-25T16:54:01.750Z,99391.53
2023-04-25T16:56:04.833Z,99386.78
2023-04-25T16:58:09.922Z,99394.63
2023-04-25T17:00:13.807Z,99391.84
2023-04-25T17:02:17.498Z,99381.50
2023-04-25T17:04:20.346Z,99384.94
2023-04-25T17:06:23.035Z,99379.66
2023-04-25T17:08:25.667Z,99376.00
2023-04-25T17:10:28.957Z,99375.44
2023-04-25T17:12:31.662Z,99376.47
2023-04-25T17:14:36.183Z,99373.25
2023-04-25T17:16:39.467Z,99372.78
2023-04-25T17:18:43.317Z,99360.72
2023-04-25T17:20:46.797Z,99370.59
2023-04-25T17:22:49.879Z,99371.31
2023-04-25T17:24:52.433Z,99370.50
2023-04-25T17:26:57.372Z,99357.03
2023-04-25T17:28:59.916Z,99354.97
2023-04-25T17:31:02.545Z,99345.91
2023-04-25T17:33:06.873Z,99348.53
2023-04-25T17:35:10.341Z,99340.63
2023-04-25T17:37:16.331Z,99349.94
2023-04-25T17:39:20.234Z,99347.84
2023-04-25T17:41:22.866Z,99346.81
2023-04-25T17:43:26.808Z,99344.50
2023-04-25T17:45:34.729Z,99333.13
2023-04-25T17:47:37.434Z,99339.78
2023-04-25T17:49:40.249Z,99326.69
2023-04-25T17:51:42.858Z,99330.81
2023-04-25T17:53:45.455Z,99326.78
2023-04-25T17:55:50.596Z,99329.69
2023-04-25T17:57:53.211Z,99325.09
2023-04-25T17:59:57.915Z,99322.66
2023-04-25T18:02:01.198Z,99325.09
2023-04-25T18:04:04.496Z,99328.06
2023-04-25T18:06:07.372Z,99329.22
2023-04-25T18:08:10.414Z,99324.88
2023-04-25T18:10:13.068Z,99316.91
2023-04-25T18:12:15.833Z,99314.50
2023-04-25T18:14:20.540Z,99310.13
2023-04-25T18:16:23.330Z,99304.16
2023-04-25T18:18:33.229Z,99302.56
2023-04-25T18:20:35.917Z,99306.00
2023-04-25T18:22:38.674Z,99292.44
2023-04-25T18:24:41.438Z,99292.44
2023-04-25T18:26:48.789Z,99284.94
2023-04-25T18:28:52.081Z,99285.31
2023-04-25T18:30:55.117Z,99279.31
2023-04-25T18:32:59.007Z,99283.34
2023-04-25T18:35:01.805Z,99279.81
2023-04-25T18:37:08.663Z,99277.22
2023-04-25T18:39:21.991Z,99275.63
2023-04-25T18:41:51.081Z,99275.16
2023-04-25T18:43:49.153Z,99273.91
2023-04-25T18:45:52.429Z,99267.44
2023-04-25T18:47:55.250Z,99252.06
2023-04-25T18:49:57.956Z,99250.34
2023-04-25T18:52:01.012Z,99252.31
2023-04-25T18:54:04.735Z,99240.81
2023-04-25T18:56:07.886Z,99243.09
2023-04-25T18:58:10.639Z,99229.66
2023-04-25T19:00:14.125Z,99226.09
2023-04-25T19:02:18.047Z,99216.22
2023-04-25T19:04:21.665Z,99213.78
2023-04-25T19:06:29.182Z,99223.22
2023-04-25T19:08:31.865Z,99213.22
2023-04-25T19:10:34.568Z,99204.97
2023-04-25T19:12:37.495Z,99204.59
2023-04-25T19:14:40.652Z,99199.53
2023-04-25T19:16:43.370Z,99187.59
2023-04-25T19:18:47.114Z,99189.69
2023-04-25T19:20:49.803Z,99186.91
2023-04-25T19:22:52.982Z,99184.50
2023-04-25T19:25:02.969Z,99178.41
2023-04-25T19:27:11.621Z,99176.34
2023-04-25T19:29:15.291Z,99171.97
2023-04-25T19:31:19.296Z,99165.66
2023-04-25T19:33:22.025Z,99162.91
2023-04-25T19:35:24.982Z,99170.34
2023-04-25T19:37:27.705Z,99170.34
2023-04-25T19:39:30.387Z,99171.19
2023-04-25T19:41:36.130Z,99162.91
2023-04-25T19:43:38.875Z,99158.78
2023-04-25T19:45:41.554Z,99168.31
2023-04-25T19:47:45.024Z,99165.53
2023-04-25T19:49:47.721Z,99166.34
2023-04-25T19:51:50.453Z,99162.44
2023-04-25T19:53:56.300Z,99156.47
2023-04-25T19:55:59.214Z,99160.03
2023-04-25T19:58:02.690Z,99163.13
2023-04-25T20:00:14.464Z,99148.22
2023-04-25T20:02:18.470Z,99147.28
2023-04-25T20:04:21.392Z,99131.78
2023-04-25T20:06:24.037Z,99131.31
2023-04-25T20:08:26.683Z,99122.72
2023-04-25T20:10:29.289Z,99126.63
2023-04-25T20:12:32.223Z,99126.25
2023-04-25T20:14:34.861Z,99121.22
2023-04-25T20:16:37.605Z,99113.28
2023-04-25T20:18:40.406Z,99120.75
2023-04-25T20:20:42.964Z,99124.66
2023-04-25T20:22:45.688Z,99130.97
2023-04-25T20:24:48.252Z,99132.13
2023-04-25T20:26:51.003Z,99129.72
2023-04-25T20:28:54.227Z,99124.91
2023-04-25T20:30:57.178Z,99120.88
2023-04-25T20:33:01.866Z,99123.66
2023-04-25T20:35:07.345Z,99112.97
2023-04-25T20:37:10.057Z,99112.16
2023-04-25T20:39:12.808Z,99109.75
2023-04-25T20:41:15.980Z,99109.41
2023-04-25T20:43:19.986Z,99109.41
2023-04-25T20:45:24.578Z,99109.88
2023-04-25T20:47:27.785Z,99112.97
2023-04-25T20:49:30.381Z,99114.22
2023-04-25T20:51:33.704Z,99111.91
2023-04-25T20:53:36.551Z,99110.75
2023-04-25T20:55:41.691Z,99105.94
2023-04-25T20:57:44.280Z,99097.22
2023-04-25T20:59:47.824Z,99107.44
2023-04-25T21:02:19.824Z,99099.97
2023-04-25T21:04:24.321Z,99102.97
2023-04-25T21:06:27.817Z,99091.16
2023-04-25T21:08:30.615Z,99085.28
2023-04-25T21:10:34.953Z,99084.13
2023-04-25T21:12:38.897Z,99073.69
2023-04-25T21:14:41.698Z,99076.91
2023-04-25T21:16:44.479Z,99070.69
2023-04-25T21:18:47.152Z,99067.47
2023-04-25T21:20:49.990Z,99055.56
2023-04-25T21:22:54.167Z,99044.53
2023-04-25T21:24:57.403Z,99054.41
2023-04-25T21:27:00.126Z,99042.91
2023-04-25T21:29:02.984Z,99038.09
2023-04-25T21:31:05.777Z,99043.63
2023-04-25T21:33:08.657Z,99040.50
2023-04-25T21:35:12.044Z,99027.75
2023-04-25T21:37:14.850Z,99024.66
2023-04-25T21:39:17.629Z,99021.56
2023-04-25T21:41:20.392Z,99018.81
2023-04-25T21:43:23.098Z,99013.66
2023-04-25T21:45:26.063Z,99016.72
2023-04-25T21:47:29.641Z,99008.47
2023-04-25T21:49:33.069Z,98990.34
2023-04-25T21:51:35.778Z,98992.31
2023-04-25T21:53:38.443Z,98992.31
2023-04-25T21:55:41.163Z,98994.25
2023-04-25T21:57:43.922Z,98992.19
2023-04-25T21:59:46.764Z,98982.66
2023-04-25T22:01:50.145Z,98974.31
2023-04-25T22:03:53.004Z,98968.34
2023-04-25T22:05:56.689Z,98956.72
2023-04-25T22:07:59.484Z,98961.44
2023-04-25T22:10:02.799Z,98954.81
2023-04-25T22:12:06.257Z,98954.34
2023-04-25T22:14:10.034Z,98951.94
2023-04-25T22:16:12.885Z,98935.84
2023-04-25T22:18:16.497Z,98942.53
2023-04-25T22:20:23.337Z,98937.34
2023-04-25T22:22:26.647Z,98934.16
2023-04-25T22:24:30.200Z,98934.16
2023-04-25T22:26:33.768Z,98926.59
2023-04-25T22:28:37.427Z,98917.88
2023-04-25T22:30:40.230Z,98914.31
2023-04-25T22:32:43.619Z,98908.69
2023-04-25T22:34:46.996Z,98902.38
2023-04-25T22:36:49.757Z,98904.78
2023-04-25T22:38:53.296Z,98898.81
2023-04-25T22:40:56.545Z,98887.34
2023-04-25T22:42:59.293Z,98875.53
2023-04-25T22:45:02.243Z,98863.72
2023-04-25T22:47:06.508Z,98852.22
2023-04-25T22:49:09.191Z,98847.44
2023-04-25T22:51:12.937Z,98824.75
2023-04-25T22:53:16.536Z,98811.44
2023-04-25T22:55:19.291Z,98809.72
2023-04-25T22:57:23.244Z,98804.59
2023-04-25T22:59:26.420Z,98794.22
2023-04-25T23:01:29.356Z,98794.59
2023-04-25T23:03:32.754Z,98800.88
2023-04-25T23:05:35.674Z,98800.88
2023-04-25T23:07:39.076Z,98790.66
2023-04-25T23:09:41.956Z,98778.88
2023-04-25T23:11:44.886Z,98777.38
2023-04-25T23:13:48.321Z,98767.50
2023-04-25T23:15:51.006Z,98758.88
2023-04-25T23:17:53.885Z,98753.38
2023-04-25T23:19:56.670Z,98746.28
2023-04-25T23:22:00.176Z,98734.47
2023-04-25T23:24:02.934Z,98743.53
2023-04-25T23:26:09.900Z,98736.88
2023-04-25T23:28:12.993Z,98733.31
2023-04-25T23:30:16.108Z,98725.84
2023-04-25T23:32:18.802Z,98717.94
2023-04-25T23:34:21.718Z,98716.00
2023-04-25T23:36:24.545Z,98708.81
2023-04-25T23:38:27.650Z,98696.97
2023-04-25T23:40:31.923Z,98694.59
2023-04-25T23:42:35.470Z,98692.63
2023-04-25T23:44:38.208Z,98696.97
2023-04-25T23:46:41.754Z,98694.34
2023-04-25T23:48:44.549Z,98695.91
2023-04-25T23:50:47.329Z,98703.38
2023-04-25T23:52:50.061Z,98705.69
2023-04-25T23:54:52.727Z,98699.72
2023-04-25T23:56:55.413Z,98695.03
2023-04-25T23:58:58.438Z,98693.78
